sensor_id;sensor_type;location;lat;lon;timestamp;P1;durP1;ratioP1;P2;durP2;ratioP2
8361;SDS011;4218;48.326;14.304;2022-08-25T00:01:26;3.50;;;3.30;;
8361;SDS011;4218;48.326;14.304;2022-08-25T00:03:52;3.60;;;3.30;;
8361;SDS011;4218;48.326;14.304;2022-08-25T00:06:18;3.40;;;3.10;;
8361;SDS011;4218;48.326;14.304;2022-08-25T00:08:43;3.27;;;3.07;;
8361;SDS011;4218;48.326;14.304;2022-08-25T00:11:11;3.83;;;3.53;;
8361;SDS011;4218;48.326;14.304;2022-08-25T00:13:42;4.90;;;3.57;;
8361;SDS011;4218;48.326;14.304;2022-08-25T00:16:10;3.73;;;3.43;;
8361;SDS011;4218;48.326;14.304;2022-08-25T00:18:37;3.63;;;3.23;;
8361;SDS011;4218;48.326;14.304;2022-08-25T00:21:04;3.73;;;3.33;;
8361;SDS011;4218;48.326;14.304;2022-08-25T00:23:30;3.67;;;3.37;;
8361;SDS011;4218;48.326;14.304;2022-08-25T00:25:56;3.90;;;3.20;;
8361;SDS011;4218;48.326;14.304;2022-08-25T00:28:21;3.43;;;3.17;;
8361;SDS011;4218;48.326;14.304;2022-08-25T00:30:46;3.97;;;3.63;;
8361;SDS011;4218;48.326;14.304;2022-08-25T00:33:13;4.37;;;4.07;;
8361;SDS011;4218;48.326;14.304;2022-08-25T00:35:39;4.10;;;3.30;;
8361;SDS011;4218;48.326;14.304;2022-08-25T00:38:06;3.23;;;2.93;;
8361;SDS011;4218;48.326;14.304;2022-08-25T00:40:31;3.40;;;2.83;;
8361;SDS011;4218;48.326;14.304;2022-08-25T00:42:57;3.57;;;3.27;;
8361;SDS011;4218;48.326;14.304;2022-08-25T00:45:23;4.03;;;3.53;;
8361;SDS011;4218;48.326;14.304;2022-08-25T00:47:49;4.13;;;3.73;;
8361;SDS011;4218;48.326;14.304;2022-08-25T00:50:14;3.47;;;3.17;;
8361;SDS011;4218;48.326;14.304;2022-08-25T00:52:42;7.40;;;3.03;;
8361;SDS011;4218;48.326;14.304;2022-08-25T00:55:18;4.57;;;4.07;;
8361;SDS011;4218;48.326;14.304;2022-08-25T00:57:49;3.43;;;3.10;;
8361;SDS011;4218;48.326;14.304;2022-08-25T01:00:31;5.97;;;3.53;;
8361;SDS011;4218;48.326;14.304;2022-08-25T01:03:00;4.13;;;3.43;;
8361;SDS011;4218;48.326;14.304;2022-08-25T01:05:26;3.40;;;3.10;;
8361;SDS011;4218;48.326;14.304;2022-08-25T01:07:53;3.77;;;3.13;;
8361;SDS011;4218;48.326;14.304;2022-08-25T01:10:20;3.30;;;3.00;;
8361;SDS011;4218;48.326;14.304;2022-08-25T01:12:47;3.73;;;3.23;;
8361;SDS011;4218;48.326;14.304;2022-08-25T01:15:18;4.17;;;3.73;;
8361;SDS011;4218;48.326;14.304;2022-08-25T01:17:50;5.70;;;3.37;;
8361;SDS011;4218;48.326;14.304;2022-08-25T01:20:17;3.63;;;3.33;;
8361;SDS011;4218;48.326;14.304;2022-08-25T01:22:44;3.83;;;3.53;;
8361;SDS011;4218;48.326;14.304;2022-08-25T01:25:16;3.70;;;3.40;;
8361;SDS011;4218;48.326;14.304;2022-08-25T01:27:44;4.13;;;3.33;;
8361;SDS011;4218;48.326;14.304;2022-08-25T01:30:09;4.00;;;3.50;;
8361;SDS011;4218;48.326;14.304;2022-08-25T01:32:35;4.23;;;3.87;;
8361;SDS011;4218;48.326;14.304;2022-08-25T01:35:00;4.53;;;4.10;;
8361;SDS011;4218;48.326;14.304;2022-08-25T01:37:26;3.70;;;3.40;;
8361;SDS011;4218;48.326;14.304;2022-08-25T01:39:51;5.83;;;3.33;;
8361;SDS011;4218;48.326;14.304;2022-08-25T01:44:51;4.57;;;3.67;;
8361;SDS011;4218;48.326;14.304;2022-08-25T01:47:17;3.90;;;3.60;;
8361;SDS011;4218;48.326;14.304;2022-08-25T01:49:42;3.67;;;3.37;;
8361;SDS011;4218;48.326;14.304;2022-08-25T01:52:14;3.83;;;3.43;;
8361;SDS011;4218;48.326;14.304;2022-08-25T01:54:52;2.90;;;2.70;;
8361;SDS011;4218;48.326;14.304;2022-08-25T01:57:17;3.63;;;3.33;;
8361;SDS011;4218;48.326;14.304;2022-08-25T01:59:43;3.03;;;2.83;;
8361;SDS011;4218;48.326;14.304;2022-08-25T02:02:09;3.43;;;3.13;;
8361;SDS011;4218;48.326;14.304;2022-08-25T02:04:34;4.13;;;3.13;;
8361;SDS011;4218;48.326;14.304;2022-08-25T02:07:02;3.43;;;3.13;;
8361;SDS011;4218;48.326;14.304;2022-08-25T02:09:28;4.17;;;2.97;;
8361;SDS011;4218;48.326;14.304;2022-08-25T02:11:54;3.73;;;3.47;;
8361;SDS011;4218;48.326;14.304;2022-08-25T02:14:20;4.80;;;3.30;;
8361;SDS011;4218;48.326;14.304;2022-08-25T02:16:47;3.50;;;3.20;;
8361;SDS011;4218;48.326;14.304;2022-08-25T02:19:15;3.27;;;2.87;;
8361;SDS011;4218;48.326;14.304;2022-08-25T02:21:41;3.60;;;2.93;;
8361;SDS011;4218;48.326;14.304;2022-08-25T02:24:08;3.40;;;3.10;;
8361;SDS011;4218;48.326;14.304;2022-08-25T02:26:33;3.30;;;3.00;;
8361;SDS011;4218;48.326;14.304;2022-08-25T02:29:00;3.53;;;3.33;;
8361;SDS011;4218;48.326;14.304;2022-08-25T02:31:26;4.23;;;2.70;;
8361;SDS011;4218;48.326;14.304;2022-08-25T02:33:52;3.20;;;2.90;;
8361;SDS011;4218;48.326;14.304;2022-08-25T02:36:18;3.13;;;2.83;;
8361;SDS011;4218;48.326;14.304;2022-08-25T02:38:44;3.33;;;3.13;;
8361;SDS011;4218;48.326;14.304;2022-08-25T02:41:15;4.17;;;3.77;;
8361;SDS011;4218;48.326;14.304;2022-08-25T02:43:43;4.23;;;3.83;;
8361;SDS011;4218;48.326;14.304;2022-08-25T02:46:09;3.27;;;2.90;;
8361;SDS011;4218;48.326;14.304;2022-08-25T02:48:35;2.70;;;2.50;;
8361;SDS011;4218;48.326;14.304;2022-08-25T02:51:02;3.17;;;2.97;;
8361;SDS011;4218;48.326;14.304;2022-08-25T02:53:29;6.27;;;4.33;;
8361;SDS011;4218;48.326;14.304;2022-08-25T02:55:55;3.40;;;3.20;;
8361;SDS011;4218;48.326;14.304;2022-08-25T02:58:20;3.93;;;3.20;;
8361;SDS011;4218;48.326;14.304;2022-08-25T03:00:46;2.93;;;2.70;;
8361;SDS011;4218;48.326;14.304;2022-08-25T03:03:13;4.33;;;3.53;;
8361;SDS011;4218;48.326;14.304;2022-08-25T03:05:38;4.23;;;3.53;;
8361;SDS011;4218;48.326;14.304;2022-08-25T03:08:05;3.37;;;3.07;;
8361;SDS011;4218;48.326;14.304;2022-08-25T03:10:31;2.83;;;2.63;;
8361;SDS011;4218;48.326;14.304;2022-08-25T03:12:57;3.20;;;2.90;;
8361;SDS011;4218;48.326;14.304;2022-08-25T03:15:22;3.53;;;3.23;;
8361;SDS011;4218;48.326;14.304;2022-08-25T03:17:51;3.40;;;3.10;;
8361;SDS011;4218;48.326;14.304;2022-08-25T03:20:18;3.97;;;3.57;;
8361;SDS011;4218;48.326;14.304;2022-08-25T03:22:44;3.83;;;3.40;;
8361;SDS011;4218;48.326;14.304;2022-08-25T03:25:10;3.97;;;3.20;;
8361;SDS011;4218;48.326;14.304;2022-08-25T03:27:54;3.60;;;3.23;;
8361;SDS011;4218;48.326;14.304;2022-08-25T03:30:19;3.17;;;2.97;;
8361;SDS011;4218;48.326;14.304;2022-08-25T03:32:45;8.00;;;3.30;;
8361;SDS011;4218;48.326;14.304;2022-08-25T03:35:11;3.57;;;3.23;;
8361;SDS011;4218;48.326;14.304;2022-08-25T03:37:37;3.93;;;3.63;;
8361;SDS011;4218;48.326;14.304;2022-08-25T03:40:04;4.20;;;3.50;;
8361;SDS011;4218;48.326;14.304;2022-08-25T03:42:33;4.03;;;2.97;;
8361;SDS011;4218;48.326;14.304;2022-08-25T03:45:00;3.33;;;3.03;;
8361;SDS011;4218;48.326;14.304;2022-08-25T03:47:28;3.63;;;3.33;;
8361;SDS011;4218;48.326;14.304;2022-08-25T03:49:54;3.10;;;2.90;;
8361;SDS011;4218;48.326;14.304;2022-08-25T03:52:20;3.77;;;3.47;;
8361;SDS011;4218;48.326;14.304;2022-08-25T03:54:46;4.87;;;3.83;;
8361;SDS011;4218;48.326;14.304;2022-08-25T03:57:11;4.23;;;3.30;;
8361;SDS011;4218;48.326;14.304;2022-08-25T03:59:37;4.90;;;3.63;;
8361;SDS011;4218;48.326;14.304;2022-08-25T04:02:03;3.50;;;3.20;;
8361;SDS011;4218;48.326;14.304;2022-08-25T04:04:29;3.63;;;2.90;;
8361;SDS011;4218;48.326;14.304;2022-08-25T04:06:55;4.20;;;3.80;;
8361;SDS011;4218;48.326;14.304;2022-08-25T04:09:21;3.70;;;3.13;;
8361;SDS011;4218;48.326;14.304;2022-08-25T04:11:46;6.53;;;3.77;;
8361;SDS011;4218;48.326;14.304;2022-08-25T04:14:12;5.10;;;3.60;;
8361;SDS011;4218;48.326;14.304;2022-08-25T04:16:37;3.80;;;3.50;;
8361;SDS011;4218;48.326;14.304;2022-08-25T04:19:03;3.90;;;3.50;;
8361;SDS011;4218;48.326;14.304;2022-08-25T04:21:33;3.40;;;2.87;;
8361;SDS011;4218;48.326;14.304;2022-08-25T04:23:59;3.83;;;3.43;;
8361;SDS011;4218;48.326;14.304;2022-08-25T04:26:26;3.60;;;3.30;;
8361;SDS011;4218;48.326;14.304;2022-08-25T04:28:55;3.07;;;2.87;;
8361;SDS011;4218;48.326;14.304;2022-08-25T04:31:22;6.70;;;3.93;;
8361;SDS011;4218;48.326;14.304;2022-08-25T04:33:48;3.77;;;3.47;;
8361;SDS011;4218;48.326;14.304;2022-08-25T04:36:14;6.77;;;2.90;;
8361;SDS011;4218;48.326;14.304;2022-08-25T04:38:42;4.20;;;3.80;;
8361;SDS011;4218;48.326;14.304;2022-08-25T04:41:09;6.30;;;3.83;;
8361;SDS011;4218;48.326;14.304;2022-08-25T04:43:36;3.87;;;3.57;;
8361;SDS011;4218;48.326;14.304;2022-08-25T04:46:06;4.90;;;3.77;;
8361;SDS011;4218;48.326;14.304;2022-08-25T04:48:32;6.47;;;3.63;;
8361;SDS011;4218;48.326;14.304;2022-08-25T04:51:03;6.07;;;4.47;;
8361;SDS011;4218;48.326;14.304;2022-08-25T04:53:29;4.00;;;3.60;;
8361;SDS011;4218;48.326;14.304;2022-08-25T04:55:56;3.70;;;3.30;;
8361;SDS011;4218;48.326;14.304;2022-08-25T04:58:22;4.37;;;3.87;;
8361;SDS011;4218;48.326;14.304;2022-08-25T05:00:47;5.13;;;3.87;;
8361;SDS011;4218;48.326;14.304;2022-08-25T05:03:12;4.10;;;3.70;;
8361;SDS011;4218;48.326;14.304;2022-08-25T05:05:38;4.17;;;3.77;;
8361;SDS011;4218;48.326;14.304;2022-08-25T05:08:04;3.83;;;3.53;;
8361;SDS011;4218;48.326;14.304;2022-08-25T05:10:30;6.33;;;3.63;;
8361;SDS011;4218;48.326;14.304;2022-08-25T05:12:56;3.80;;;3.20;;
8361;SDS011;4218;48.326;14.304;2022-08-25T05:15:22;3.90;;;3.50;;
8361;SDS011;4218;48.326;14.304;2022-08-25T05:18:06;4.57;;;4.03;;
8361;SDS011;4218;48.326;14.304;2022-08-25T05:20:34;4.47;;;4.03;;
8361;SDS011;4218;48.326;14.304;2022-08-25T05:23:01;5.00;;;3.77;;
8361;SDS011;4218;48.326;14.304;2022-08-25T05:25:26;4.40;;;4.00;;
8361;SDS011;4218;48.326;14.304;2022-08-25T05:27:52;6.20;;;3.87;;
8361;SDS011;4218;48.326;14.304;2022-08-25T05:30:17;3.83;;;3.53;;
8361;SDS011;4218;48.326;14.304;2022-08-25T05:32:43;4.30;;;3.70;;
8361;SDS011;4218;48.326;14.304;2022-08-25T05:35:08;5.00;;;4.50;;
8361;SDS011;4218;48.326;14.304;2022-08-25T05:37:34;4.00;;;3.60;;
8361;SDS011;4218;48.326;14.304;2022-08-25T05:39:59;6.57;;;4.53;;
8361;SDS011;4218;48.326;14.304;2022-08-25T05:42:25;5.40;;;4.20;;
8361;SDS011;4218;48.326;14.304;2022-08-25T05:44:52;4.10;;;3.77;;
8361;SDS011;4218;48.326;14.304;2022-08-25T05:47:18;5.27;;;4.50;;
8361;SDS011;4218;48.326;14.304;2022-08-25T05:49:43;4.07;;;3.70;;
8361;SDS011;4218;48.326;14.304;2022-08-25T05:52:08;5.03;;;4.53;;
8361;SDS011;4218;48.326;14.304;2022-08-25T05:54:34;5.50;;;4.97;;
8361;SDS011;4218;48.326;14.304;2022-08-25T05:56:59;5.67;;;5.07;;
8361;SDS011;4218;48.326;14.304;2022-08-25T05:59:25;5.77;;;4.50;;
8361;SDS011;4218;48.326;14.304;2022-08-25T06:01:50;5.17;;;4.00;;
8361;SDS011;4218;48.326;14.304;2022-08-25T06:04:34;4.93;;;4.47;;
8361;SDS011;4218;48.326;14.304;2022-08-25T06:07:00;6.13;;;4.53;;
8361;SDS011;4218;48.326;14.304;2022-08-25T06:09:25;4.60;;;3.83;;
8361;SDS011;4218;48.326;14.304;2022-08-25T06:11:51;5.00;;;4.10;;
8361;SDS011;4218;48.326;14.304;2022-08-25T06:14:17;6.00;;;4.80;;
8361;SDS011;4218;48.326;14.304;2022-08-25T06:16:47;7.90;;;4.90;;
8361;SDS011;4218;48.326;14.304;2022-08-25T06:19:15;4.47;;;4.07;;
8361;SDS011;4218;48.326;14.304;2022-08-25T06:21:41;5.03;;;4.50;;
8361;SDS011;4218;48.326;14.304;2022-08-25T06:24:07;4.53;;;4.00;;
8361;SDS011;4218;48.326;14.304;2022-08-25T06:26:36;5.77;;;5.03;;
8361;SDS011;4218;48.326;14.304;2022-08-25T06:29:02;4.87;;;4.37;;
8361;SDS011;4218;48.326;14.304;2022-08-25T06:31:28;5.53;;;4.77;;
8361;SDS011;4218;48.326;14.304;2022-08-25T06:33:53;5.63;;;4.97;;
8361;SDS011;4218;48.326;14.304;2022-08-25T06:36:19;6.13;;;5.23;;
8361;SDS011;4218;48.326;14.304;2022-08-25T06:38:45;6.47;;;5.07;;
8361;SDS011;4218;48.326;14.304;2022-08-25T06:41:11;7.47;;;4.53;;
8361;SDS011;4218;48.326;14.304;2022-08-25T06:43:38;9.93;;;4.87;;
8361;SDS011;4218;48.326;14.304;2022-08-25T06:46:12;6.57;;;5.93;;
8361;SDS011;4218;48.326;14.304;2022-08-25T06:48:39;5.97;;;4.97;;
8361;SDS011;4218;48.326;14.304;2022-08-25T06:51:09;4.60;;;4.20;;
8361;SDS011;4218;48.326;14.304;2022-08-25T06:53:37;6.97;;;5.30;;
8361;SDS011;4218;48.326;14.304;2022-08-25T06:56:03;4.40;;;4.00;;
8361;SDS011;4218;48.326;14.304;2022-08-25T06:58:29;7.87;;;4.60;;
8361;SDS011;4218;48.326;14.304;2022-08-25T07:00:55;6.13;;;5.00;;
8361;SDS011;4218;48.326;14.304;2022-08-25T07:03:21;5.33;;;4.83;;
8361;SDS011;4218;48.326;14.304;2022-08-25T07:05:50;7.20;;;4.63;;
8361;SDS011;4218;48.326;14.304;2022-08-25T07:08:16;4.37;;;3.67;;
8361;SDS011;4218;48.326;14.304;2022-08-25T07:10:42;6.13;;;4.53;;
8361;SDS011;4218;48.326;14.304;2022-08-25T07:13:07;5.07;;;4.13;;
8361;SDS011;4218;48.326;14.304;2022-08-25T07:15:36;13.47;;;4.70;;
8361;SDS011;4218;48.326;14.304;2022-08-25T07:18:03;7.73;;;5.77;;
8361;SDS011;4218;48.326;14.304;2022-08-25T07:20:28;5.63;;;4.50;;
8361;SDS011;4218;48.326;14.304;2022-08-25T07:22:55;6.03;;;5.10;;
8361;SDS011;4218;48.326;14.304;2022-08-25T07:25:21;12.23;;;6.53;;
8361;SDS011;4218;48.326;14.304;2022-08-25T07:27:47;9.37;;;6.10;;
8361;SDS011;4218;48.326;14.304;2022-08-25T07:30:12;11.30;;;7.70;;
8361;SDS011;4218;48.326;14.304;2022-08-25T07:32:38;14.00;;;7.73;;
8361;SDS011;4218;48.326;14.304;2022-08-25T07:35:03;10.13;;;7.27;;
8361;SDS011;4218;48.326;14.304;2022-08-25T07:37:49;9.67;;;6.20;;
8361;SDS011;4218;48.326;14.304;2022-08-25T07:40:18;8.87;;;6.50;;
8361;SDS011;4218;48.326;14.304;2022-08-25T07:42:47;8.70;;;5.93;;
8361;SDS011;4218;48.326;14.304;2022-08-25T07:45:13;7.30;;;6.40;;
8361;SDS011;4218;48.326;14.304;2022-08-25T07:47:40;14.93;;;5.63;;
8361;SDS011;4218;48.326;14.304;2022-08-25T07:50:07;10.00;;;6.53;;
8361;SDS011;4218;48.326;14.304;2022-08-25T07:52:35;8.50;;;6.63;;
8361;SDS011;4218;48.326;14.304;2022-08-25T07:55:00;9.90;;;5.63;;
8361;SDS011;4218;48.326;14.304;2022-08-25T07:57:26;7.93;;;5.73;;
8361;SDS011;4218;48.326;14.304;2022-08-25T07:59:53;7.87;;;5.77;;
8361;SDS011;4218;48.326;14.304;2022-08-25T08:02:19;5.00;;;4.53;;
8361;SDS011;4218;48.326;14.304;2022-08-25T08:04:48;5.57;;;4.90;;
8361;SDS011;4218;48.326;14.304;2022-08-25T08:07:16;10.20;;;5.13;;
8361;SDS011;4218;48.326;14.304;2022-08-25T08:09:42;9.00;;;5.40;;
8361;SDS011;4218;48.326;14.304;2022-08-25T08:12:08;5.80;;;4.87;;
8361;SDS011;4218;48.326;14.304;2022-08-25T08:14:33;9.13;;;5.47;;
8361;SDS011;4218;48.326;14.304;2022-08-25T08:16:59;6.00;;;5.40;;
8361;SDS011;4218;48.326;14.304;2022-08-25T08:19:24;6.33;;;4.83;;
8361;SDS011;4218;48.326;14.304;2022-08-25T08:21:49;6.53;;;4.90;;
8361;SDS011;4218;48.326;14.304;2022-08-25T08:24:15;6.47;;;4.90;;
8361;SDS011;4218;48.326;14.304;2022-08-25T08:26:41;7.87;;;5.17;;
8361;SDS011;4218;48.326;14.304;2022-08-25T08:29:06;6.37;;;5.63;;
8361;SDS011;4218;48.326;14.304;2022-08-25T08:31:31;8.20;;;6.20;;
8361;SDS011;4218;48.326;14.304;2022-08-25T08:33:58;5.43;;;4.93;;
8361;SDS011;4218;48.326;14.304;2022-08-25T08:36:24;7.87;;;6.17;;
8361;SDS011;4218;48.326;14.304;2022-08-25T08:38:50;13.53;;;6.13;;
8361;SDS011;4218;48.326;14.304;2022-08-25T08:52:48;8.97;;;6.03;;
8361;SDS011;4218;48.326;14.304;2022-08-25T08:55:38;7.13;;;6.00;;
8361;SDS011;4218;48.326;14.304;2022-08-25T08:58:08;6.60;;;5.80;;
8361;SDS011;4218;48.326;14.304;2022-08-25T09:00:38;6.67;;;4.93;;
8361;SDS011;4218;48.326;14.304;2022-08-25T09:03:11;5.70;;;5.10;;
8361;SDS011;4218;48.326;14.304;2022-08-25T09:05:47;6.10;;;5.33;;
8361;SDS011;4218;48.326;14.304;2022-08-25T09:08:15;4.97;;;4.50;;
8361;SDS011;4218;48.326;14.304;2022-08-25T09:13:31;5.10;;;4.57;;
8361;SDS011;4218;48.326;14.304;2022-08-25T09:16:28;4.00;;;3.63;;
8361;SDS011;4218;48.326;14.304;2022-08-25T09:22:01;3.23;;;3.03;;
8361;SDS011;4218;48.326;14.304;2022-08-25T09:24:52;3.27;;;2.90;;
8361;SDS011;4218;48.326;14.304;2022-08-25T09:29:59;2.00;;;1.90;;
8361;SDS011;4218;48.326;14.304;2022-08-25T09:32:29;1.70;;;1.60;;
8361;SDS011;4218;48.326;14.304;2022-08-25T09:34:59;1.20;;;1.20;;
8361;SDS011;4218;48.326;14.304;2022-08-25T09:37:27;1.33;;;1.33;;
8361;SDS011;4218;48.326;14.304;2022-08-25T09:39:52;1.40;;;1.40;;
8361;SDS011;4218;48.326;14.304;2022-08-25T09:42:18;1.80;;;1.70;;
8361;SDS011;4218;48.326;14.304;2022-08-25T09:44:45;1.63;;;1.53;;
8361;SDS011;4218;48.326;14.304;2022-08-25T09:49:42;1.50;;;1.50;;
8361;SDS011;4218;48.326;14.304;2022-08-25T09:52:22;1.50;;;1.40;;
8361;SDS011;4218;48.326;14.304;2022-08-25T09:54:52;1.23;;;1.23;;
8361;SDS011;4218;48.326;14.304;2022-08-25T09:57:30;1.30;;;1.30;;
8361;SDS011;4218;48.326;14.304;2022-08-25T09:59:56;3.47;;;1.17;;
8361;SDS011;4218;48.326;14.304;2022-08-25T10:02:25;1.83;;;1.73;;
8361;SDS011;4218;48.326;14.304;2022-08-25T10:04:52;2.43;;;1.70;;
8361;SDS011;4218;48.326;14.304;2022-08-25T10:09:56;3.23;;;1.87;;
8361;SDS011;4218;48.326;14.304;2022-08-25T10:14:57;4.13;;;1.83;;
8361;SDS011;4218;48.326;14.304;2022-08-25T10:17:24;1.63;;;1.40;;
8361;SDS011;4218;48.326;14.304;2022-08-25T10:19:52;1.48;;;1.38;;
8361;SDS011;4218;48.326;14.304;2022-08-25T10:22:21;3.03;;;2.15;;
8361;SDS011;4218;48.326;14.304;2022-08-25T10:24:49;2.08;;;1.80;;
8361;SDS011;4218;48.326;14.304;2022-08-25T10:29:59;1.60;;;1.42;;
8361;SDS011;4218;48.326;14.304;2022-08-25T10:35:17;2.10;;;1.88;;
8361;SDS011;4218;48.326;14.304;2022-08-25T10:49:47;2.13;;;1.88;;
8361;SDS011;4218;48.326;14.304;2022-08-25T10:55:12;1.80;;;1.70;;
8361;SDS011;4218;48.326;14.304;2022-08-25T10:58:01;1.45;;;1.40;;
8361;SDS011;4218;48.326;14.304;2022-08-25T11:00:52;1.83;;;1.73;;
8361;SDS011;4218;48.326;14.304;2022-08-25T11:03:29;2.08;;;1.70;;
8361;SDS011;4218;48.326;14.304;2022-08-25T11:06:06;2.03;;;1.92;;
8361;SDS011;4218;48.326;14.304;2022-08-25T11:08:43;2.28;;;2.17;;
8361;SDS011;4218;48.326;14.304;2022-08-25T11:13:54;1.80;;;1.70;;
8361;SDS011;4218;48.326;14.304;2022-08-25T11:21:59;4.50;;;2.00;;
8361;SDS011;4218;48.326;14.304;2022-08-25T11:27:51;2.00;;;1.90;;
8361;SDS011;4218;48.326;14.304;2022-08-25T11:30:21;2.00;;;1.90;;
8361;SDS011;4218;48.326;14.304;2022-08-25T11:32:48;3.17;;;2.17;;
8361;SDS011;4218;48.326;14.304;2022-08-25T11:35:16;2.80;;;2.58;;
8361;SDS011;4218;48.326;14.304;2022-08-25T11:37:52;2.22;;;2.13;;
8361;SDS011;4218;48.326;14.304;2022-08-25T11:43:09;2.22;;;2.05;;
8361;SDS011;4218;48.326;14.304;2022-08-25T11:45:53;2.63;;;2.42;;
8361;SDS011;4218;48.326;14.304;2022-08-25T11:51:44;3.78;;;2.50;;
8361;SDS011;4218;48.326;14.304;2022-08-25T11:54:27;2.22;;;2.13;;
8361;SDS011;4218;48.326;14.304;2022-08-25T11:56:59;2.70;;;2.50;;
8361;SDS011;4218;48.326;14.304;2022-08-25T12:05:08;3.83;;;2.63;;
8361;SDS011;4218;48.326;14.304;2022-08-25T12:07:57;3.22;;;2.67;;
8361;SDS011;4218;48.326;14.304;2022-08-25T12:19:07;4.72;;;3.72;;
8361;SDS011;4218;48.326;14.304;2022-08-25T12:21:46;3.60;;;3.30;;
8361;SDS011;4218;48.326;14.304;2022-08-25T12:24:13;3.25;;;3.05;;
8361;SDS011;4218;48.326;14.304;2022-08-25T12:26:48;3.97;;;3.38;;
8361;SDS011;4218;48.326;14.304;2022-08-25T12:29:32;3.78;;;3.47;;
8361;SDS011;4218;48.326;14.304;2022-08-25T12:37:27;3.90;;;3.05;;
8361;SDS011;4218;48.326;14.304;2022-08-25T12:40:00;5.78;;;3.28;;
8361;SDS011;4218;48.326;14.304;2022-08-25T12:42:34;3.00;;;2.80;;
8361;SDS011;4218;48.326;14.304;2022-08-25T12:45:10;3.72;;;3.10;;
8361;SDS011;4218;48.326;14.304;2022-08-25T12:47:45;3.47;;;3.17;;
8361;SDS011;4218;48.326;14.304;2022-08-25T12:55:47;3.30;;;3.10;;
8361;SDS011;4218;48.326;14.304;2022-08-25T12:58:15;4.47;;;3.67;;
8361;SDS011;4218;48.326;14.304;2022-08-25T13:00:54;3.72;;;3.35;;
8361;SDS011;4218;48.326;14.304;2022-08-25T13:03:41;3.43;;;3.10;;
8361;SDS011;4218;48.326;14.304;2022-08-25T13:11:54;3.55;;;3.20;;
8361;SDS011;4218;48.326;14.304;2022-08-25T13:14:37;3.27;;;2.97;;
8361;SDS011;4218;48.326;14.304;2022-08-25T13:17:04;3.15;;;2.90;;
8361;SDS011;4218;48.326;14.304;2022-08-25T13:19:31;3.40;;;3.10;;
8361;SDS011;4218;48.326;14.304;2022-08-25T13:21:57;4.70;;;3.30;;
8361;SDS011;4218;48.326;14.304;2022-08-25T13:24:26;4.43;;;3.20;;
8361;SDS011;4218;48.326;14.304;2022-08-25T13:27:05;5.57;;;2.95;;
8361;SDS011;4218;48.326;14.304;2022-08-25T13:29:34;5.35;;;3.00;;
8361;SDS011;4218;48.326;14.304;2022-08-25T13:32:25;2.90;;;2.70;;
8361;SDS011;4218;48.326;14.304;2022-08-25T13:34:54;4.30;;;3.22;;
8361;SDS011;4218;48.326;14.304;2022-08-25T13:37:33;3.28;;;2.88;;
8361;SDS011;4218;48.326;14.304;2022-08-25T13:43:03;3.42;;;3.13;;
8361;SDS011;4218;48.326;14.304;2022-08-25T13:45:31;3.38;;;3.00;;
8361;SDS011;4218;48.326;14.304;2022-08-25T13:48:01;4.13;;;2.92;;
8361;SDS011;4218;48.326;14.304;2022-08-25T13:50:30;3.13;;;2.88;;
8361;SDS011;4218;48.326;14.304;2022-08-25T13:53:03;5.53;;;3.30;;
8361;SDS011;4218;48.326;14.304;2022-08-25T13:55:33;3.72;;;3.25;;
8361;SDS011;4218;48.326;14.304;2022-08-25T13:58:01;4.28;;;3.20;;
8361;SDS011;4218;48.326;14.304;2022-08-25T14:00:29;4.43;;;2.72;;
8361;SDS011;4218;48.326;14.304;2022-08-25T14:03:01;4.90;;;2.95;;
8361;SDS011;4218;48.326;14.304;2022-08-25T14:05:30;3.33;;;3.03;;
8361;SDS011;4218;48.326;14.304;2022-08-25T14:08:20;3.38;;;3.15;;
8361;SDS011;4218;48.326;14.304;2022-08-25T14:11:05;5.40;;;3.03;;
8361;SDS011;4218;48.326;14.304;2022-08-25T14:13:32;4.13;;;2.88;;
8361;SDS011;4218;48.326;14.304;2022-08-25T14:16:09;4.03;;;2.90;;
8361;SDS011;4218;48.326;14.304;2022-08-25T14:18:38;3.33;;;3.13;;
8361;SDS011;4218;48.326;14.304;2022-08-25T14:21:11;2.80;;;2.60;;
8361;SDS011;4218;48.326;14.304;2022-08-25T14:23:38;3.03;;;2.75;;
8361;SDS011;4218;48.326;14.304;2022-08-25T14:26:03;2.88;;;2.65;;
8361;SDS011;4218;48.326;14.304;2022-08-25T14:28:29;3.83;;;3.00;;
8361;SDS011;4218;48.326;14.304;2022-08-25T14:30:58;2.72;;;2.53;;
8361;SDS011;4218;48.326;14.304;2022-08-25T14:33:27;5.95;;;3.00;;
8361;SDS011;4218;48.326;14.304;2022-08-25T14:35:56;4.63;;;2.60;;
8361;SDS011;4218;48.326;14.304;2022-08-25T14:38:23;3.33;;;3.03;;
8361;SDS011;4218;48.326;14.304;2022-08-25T14:40:50;2.90;;;2.42;;
8361;SDS011;4218;48.326;14.304;2022-08-25T14:43:17;4.90;;;2.72;;
8361;SDS011;4218;48.326;14.304;2022-08-25T14:45:43;3.33;;;2.97;;
8361;SDS011;4218;48.326;14.304;2022-08-25T14:48:16;4.18;;;2.72;;
8361;SDS011;4218;48.326;14.304;2022-08-25T14:50:48;3.15;;;2.85;;
8361;SDS011;4218;48.326;14.304;2022-08-25T14:53:13;4.72;;;2.33;;
8361;SDS011;4218;48.326;14.304;2022-08-25T14:55:39;3.20;;;2.95;;
8361;SDS011;4218;48.326;14.304;2022-08-25T14:58:04;2.70;;;2.47;;
8361;SDS011;4218;48.326;14.304;2022-08-25T15:00:39;4.55;;;2.30;;
8361;SDS011;4218;48.326;14.304;2022-08-25T15:03:09;2.90;;;2.72;;
8361;SDS011;4218;48.326;14.304;2022-08-25T15:05:37;3.70;;;2.53;;
8361;SDS011;4218;48.326;14.304;2022-08-25T15:08:02;3.90;;;2.92;;
8361;SDS011;4218;48.326;14.304;2022-08-25T15:10:46;2.90;;;2.47;;
8361;SDS011;4218;48.326;14.304;2022-08-25T15:13:12;3.30;;;3.00;;
8361;SDS011;4218;48.326;14.304;2022-08-25T15:15:39;3.13;;;2.65;;
8361;SDS011;4218;48.326;14.304;2022-08-25T15:18:07;6.43;;;2.88;;
8361;SDS011;4218;48.326;14.304;2022-08-25T15:20:33;5.20;;;3.00;;
8361;SDS011;4218;48.326;14.304;2022-08-25T15:22:59;4.13;;;3.03;;
8361;SDS011;4218;48.326;14.304;2022-08-25T15:25:24;3.40;;;2.90;;
8361;SDS011;4218;48.326;14.304;2022-08-25T15:27:50;5.43;;;2.10;;
8361;SDS011;4218;48.326;14.304;2022-08-25T15:30:16;4.45;;;3.05;;
8361;SDS011;4218;48.326;14.304;2022-08-25T15:32:41;4.03;;;3.55;;
8361;SDS011;4218;48.326;14.304;2022-08-25T15:35:07;9.57;;;3.05;;
8361;SDS011;4218;48.326;14.304;2022-08-25T15:37:33;4.10;;;2.63;;
8361;SDS011;4218;48.326;14.304;2022-08-25T15:39:59;3.85;;;2.50;;
8361;SDS011;4218;48.326;14.304;2022-08-25T15:42:26;2.58;;;2.45;;
8361;SDS011;4218;48.326;14.304;2022-08-25T15:44:52;2.85;;;2.55;;
8361;SDS011;4218;48.326;14.304;2022-08-25T15:47:18;5.57;;;2.88;;
8361;SDS011;4218;48.326;14.304;2022-08-25T15:49:44;4.60;;;2.85;;
8361;SDS011;4218;48.326;14.304;2022-08-25T15:52:09;2.70;;;2.50;;
8361;SDS011;4218;48.326;14.304;2022-08-25T15:54:37;3.40;;;3.08;;
8361;SDS011;4218;48.326;14.304;2022-08-25T15:57:03;4.75;;;3.00;;
8361;SDS011;4218;48.326;14.304;2022-08-25T15:59:28;4.28;;;2.97;;
8361;SDS011;4218;48.326;14.304;2022-08-25T16:01:54;2.92;;;2.67;;
8361;SDS011;4218;48.326;14.304;2022-08-25T16:04:21;4.45;;;2.97;;
8361;SDS011;4218;48.326;14.304;2022-08-25T16:06:48;4.35;;;3.95;;
8361;SDS011;4218;48.326;14.304;2022-08-25T16:09:13;3.72;;;3.25;;
8361;SDS011;4218;48.326;14.304;2022-08-25T16:11:39;3.50;;;3.20;;
8361;SDS011;4218;48.326;14.304;2022-08-25T16:14:07;4.13;;;3.60;;
8361;SDS011;4218;48.326;14.304;2022-08-25T16:16:32;3.92;;;3.35;;
8361;SDS011;4218;48.326;14.304;2022-08-25T16:18:58;3.33;;;3.13;;
8361;SDS011;4218;48.326;14.304;2022-08-25T16:21:25;3.05;;;2.85;;
8361;SDS011;4218;48.326;14.304;2022-08-25T16:23:53;3.83;;;3.33;;
8361;SDS011;4218;48.326;14.304;2022-08-25T16:26:21;3.15;;;2.95;;
8361;SDS011;4218;48.326;14.304;2022-08-25T16:28:46;8.18;;;2.85;;
8361;SDS011;4218;48.326;14.304;2022-08-25T16:31:12;4.25;;;3.47;;
8361;SDS011;4218;48.326;14.304;2022-08-25T16:33:39;3.65;;;3.13;;
8361;SDS011;4218;48.326;14.304;2022-08-25T16:36:12;6.15;;;3.22;;
8361;SDS011;4218;48.326;14.304;2022-08-25T16:38:40;4.28;;;3.50;;
8361;SDS011;4218;48.326;14.304;2022-08-25T16:41:08;3.70;;;3.40;;
8361;SDS011;4218;48.326;14.304;2022-08-25T16:43:35;3.70;;;3.10;;
8361;SDS011;4218;48.326;14.304;2022-08-25T16:46:02;3.70;;;3.40;;
8361;SDS011;4218;48.326;14.304;2022-08-25T16:48:30;3.80;;;3.00;;
8361;SDS011;4218;48.326;14.304;2022-08-25T16:50:55;3.87;;;3.47;;